Time;durP1;ratioP1;P1;durP2;ratioP2;P2;SDS_P1;SDS_P2;PMS_P1;PMS_P2;Temp;Humidity;BMP_temperature;BMP_pressure;BME280_temperature;BME280_humidity;BME280_pressure;Samples;Min_cycle;Max_cycle;Signal;HPM_P1;HPM_P2
2022/01/09 00:00:03;;;;;;;14.55;10.18;;;4.60;99.90;;;;;;5063432;28;20478;-78
2022/01/09 00:02:29;;;;;;;15.73;10.77;;;4.70;99.90;;;;;;5047811;28;20075;-78
2022/01/09 00:04:54;;;;;;;16.25;11.20;;;5.00;99.90;;;;;;5030515;28;20099;-78
2022/01/09 00:07:20;;;;;;;16.57;11.80;;;5.10;99.90;;;;;;5064183;28;20128;-78
2022/01/09 00:09:46;;;;;;;14.83;10.70;;;4.60;99.90;;;;;;5046023;28;20291;-78
2022/01/09 00:12:12;;;;;;;16.37;11.03;;;4.50;99.90;;;;;;5069867;28;20089;-78
2022/01/09 00:14:38;;;;;;;17.38;12.05;;;4.80;99.90;;;;;;5050289;28;20279;-78
2022/01/09 00:17:04;;;;;;;16.98;11.90;;;4.60;99.90;;;;;;5043765;28;20524;-78
2022/01/09 00:19:30;;;;;;;16.27;10.43;;;4.60;99.90;;;;;;5045481;28;20139;-78
2022/01/09 00:21:56;;;;;;;20.27;12.43;;;4.60;99.90;;;;;;5056872;28;20123;-78
2022/01/09 00:24:22;;;;;;;18.52;13.25;;;4.70;99.90;;;;;;5047993;28;20079;-77
2022/01/09 00:26:48;;;;;;;;;;;4.50;99.90;;;;;;5032013;28;20067;-78
2022/01/09 00:29:14;;;;;;;17.40;12.30;;;4.60;99.90;;;;;;5068324;28;20418;-78
2022/01/09 00:31:40;;;;;;;13.45;9.02;;;5.50;99.90;;;;;;5033151;28;20044;-78
2022/01/09 00:34:06;;;;;;;16.23;9.55;;;6.00;99.90;;;;;;5057396;28;20071;-78
2022/01/09 00:36:31;;;;;;;13.32;8.95;;;4.60;99.90;;;;;;5029569;28;20505;-78
2022/01/09 00:38:57;;;;;;;15.82;10.23;;;4.70;99.90;;;;;;5045450;28;20376;-78
2022/01/09 00:41:23;;;;;;;19.38;12.52;;;4.60;99.90;;;;;;5027487;28;20055;-78
2022/01/09 00:43:50;;;;;;;16.98;11.73;;;4.50;99.90;;;;;;5030113;28;20044;-78
2022/01/09 00:46:16;;;;;;;17.48;11.30;;;4.60;99.90;;;;;;5063410;28;20049;-77
2022/01/09 00:48:42;;;;;;;17.52;11.45;;;4.60;99.90;;;;;;5047436;28;20051;-78
2022/01/09 00:51:08;;;;;;;16.27;10.55;;;4.50;99.90;;;;;;5046964;28;20038;-78
2022/01/09 00:53:34;;;;;;;17.85;11.93;;;4.50;99.90;;;;;;5032448;28;20059;-78
2022/01/09 00:55:59;;;;;;;16.25;11.15;;;4.50;99.90;;;;;;5068331;28;20047;-78
2022/01/09 00:58:25;;;;;;;14.73;10.15;;;4.50;99.90;;;;;;5046083;28;20044;-78
2022/01/09 01:00:52;;;;;;;15.57;10.53;;;4.60;99.90;;;;;;5050198;28;20083;-78
2022/01/09 01:03:19;;;;;;;14.48;9.27;;;4.60;99.90;;;;;;5052011;28;20286;-78
2022/01/09 01:05:45;;;;;;;18.95;12.35;;;4.70;99.90;;;;;;5047523;28;20388;-78
2022/01/09 01:08:11;;;;;;;17.77;12.48;;;4.50;99.90;;;;;;5047974;28;20044;-77
2022/01/09 01:10:37;;;;;;;19.75;12.70;;;4.50;99.90;;;;;;5063829;28;20039;-78
2022/01/09 01:13:03;;;;;;;18.87;12.17;;;4.50;99.90;;;;;;5035890;28;20047;-78
2022/01/09 01:15:29;;;;;;;19.13;12.63;;;4.80;99.90;;;;;;5043326;28;20306;-78
2022/01/09 01:17:55;;;;;;;18.52;11.50;;;4.60;99.90;;;;;;5047338;28;20036;-78
2022/01/09 01:20:22;;;;;;;14.38;9.43;;;4.50;99.90;;;;;;5061470;28;20037;-78
2022/01/09 01:22:52;;;;;;;18.38;12.43;;;4.60;99.90;;;;;;5042290;28;20048;-78
2022/01/09 01:25:20;;;;;;;16.92;11.02;;;4.60;99.90;;;;;;5040429;28;20067;-77
2022/01/09 01:27:46;;;;;;;21.17;13.00;;;4.60;99.90;;;;;;5051989;28;20407;-77
2022/01/09 01:30:13;;;;;;;19.75;12.93;;;4.90;99.90;;;;;;5044740;28;20068;-78
2022/01/09 01:32:40;;;;;;;21.23;13.60;;;4.60;99.90;;;;;;5028022;28;20662;-77
2022/01/09 01:35:07;;;;;;;22.38;13.30;;;5.60;99.90;;;;;;5056106;28;20048;-77
2022/01/09 01:37:33;;;;;;;18.50;10.98;;;4.60;99.90;;;;;;5061318;28;20067;-77
2022/01/09 01:39:59;;;;;;;24.65;15.23;;;4.60;99.90;;;;;;5041950;28;20075;-77
2022/01/09 01:42:24;;;;;;;23.23;13.65;;;4.40;99.90;;;;;;5020292;28;20523;-77
2022/01/09 01:44:51;;;;;;;22.48;13.85;;;4.50;99.90;;;;;;5030774;28;20054;-77
2022/01/09 01:47:20;;;;;;;21.75;13.65;;;4.40;99.90;;;;;;5063755;28;20678;-77
2022/01/09 01:49:46;;;;;;;28.92;15.90;;;5.40;99.90;;;;;;5068172;28;20039;-77
2022/01/09 01:52:15;;;;;;;26.38;15.30;;;5.30;99.90;;;;;;5042036;28;20032;-77
2022/01/09 01:54:43;;;;;;;31.33;16.30;;;4.70;99.90;;;;;;5044517;28;20100;-77
2022/01/09 01:57:09;;;;;;;31.33;15.73;;;4.40;99.90;;;;;;5051208;28;20044;-77
2022/01/09 01:59:35;;;;;;;;;;;4.30;99.90;;;;;;5061288;28;20059;-77
2022/01/09 02:02:01;;;;;;;26.85;15.38;;;4.30;99.90;;;;;;5060562;28;20387;-77
2022/01/09 02:04:27;;;;;;;25.92;14.45;;;4.40;99.90;;;;;;5062396;28;20537;-77
2022/01/09 02:06:55;;;;;;;25.90;14.68;;;4.40;99.90;;;;;;5048140;28;20496;-77
2022/01/09 02:09:20;;;;;;;28.48;14.40;;;4.40;99.90;;;;;;5063016;28;20044;-77
2022/01/09 02:11:46;;;;;;;27.92;14.85;;;4.40;99.90;;;;;;5042115;28;20039;-77
2022/01/09 02:14:12;;;;;;;34.38;15.25;;;4.40;99.90;;;;;;5050872;28;20040;-77
2022/01/09 02:16:42;;;;;;;24.95;13.20;;;4.40;99.90;;;;;;5062874;28;20550;-77
2022/01/09 02:19:11;;;;;;;24.92;13.70;;;4.40;99.90;;;;;;5044952;28;20044;-77
2022/01/09 02:21:40;;;;;;;26.38;14.15;;;4.50;99.90;;;;;;5067118;28;20135;-77
2022/01/09 02:24:06;;;;;;;25.98;14.38;;;4.70;99.90;;;;;;5062915;28;20051;-77
2022/01/09 02:26:31;;;;;;;27.08;14.77;;;4.50;99.90;;;;;;5065047;28;20044;-77
2022/01/09 02:28:57;;;;;;;31.90;15.53;;;4.40;99.90;;;;;;5043342;28;20384;-77
2022/01/09 02:31:23;;;;;;;32.87;15.97;;;4.50;99.90;;;;;;5060215;28;20348;-77
2022/01/09 02:33:48;;;;;;;32.53;15.93;;;4.60;99.90;;;;;;5065023;28;20348;-77
2022/01/09 02:36:14;;;;;;;32.25;15.02;;;4.50;99.90;;;;;;5048762;28;20024;-77
2022/01/09 02:38:40;;;;;;;33.38;14.65;;;4.50;99.90;;;;;;5064723;28;20123;-77
2022/01/09 02:41:05;;;;;;;36.72;16.75;;;4.50;99.90;;;;;;5067109;28;20036;-77
2022/01/09 02:43:32;;;;;;;36.70;15.87;;;4.50;99.90;;;;;;5041063;28;20552;-76
2022/01/09 02:46:12;;;;;;;32.72;15.45;;;4.80;99.90;;;;;;5059563;28;20123;-77
2022/01/09 02:48:39;;;;;;;37.55;15.75;;;4.50;99.90;;;;;;5028006;28;20040;-77
2022/01/09 02:51:10;;;;;;;36.75;16.05;;;5.20;99.90;;;;;;5048126;28;20032;-77
2022/01/09 02:53:37;;;;;;;36.25;15.80;;;4.60;99.90;;;;;;5049252;28;20059;-77
2022/01/09 02:56:05;;;;;;;40.45;16.27;;;4.70;99.90;;;;;;5045713;28;20037;-77
2022/01/09 02:58:32;;;;;;;42.13;15.52;;;4.50;99.90;;;;;;5062844;28;20052;-77
2022/01/09 03:00:57;;;;;;;33.22;15.20;;;5.10;99.90;;;;;;5037980;28;20037;-77
2022/01/09 03:03:23;;;;;;;34.33;14.27;;;4.90;99.90;;;;;;5057662;28;20039;-77
2022/01/09 03:05:49;;;;;;;35.75;14.25;;;4.60;99.90;;;;;;5061472;28;20136;-77
2022/01/09 03:08:15;;;;;;;38.15;14.18;;;4.60;99.90;;;;;;5038179;28;20098;-77
2022/01/09 03:10:41;;;;;;;31.23;13.23;;;4.60;99.90;;;;;;5030859;28;20041;-76
2022/01/09 03:13:07;;;;;;;36.95;13.98;;;4.60;99.90;;;;;;5060948;28;20033;-77
2022/01/09 03:15:33;;;;;;;34.00;12.93;;;4.70;99.90;;;;;;5049234;28;20036;-77
2022/01/09 03:17:59;;;;;;;27.40;11.15;;;4.70;99.90;;;;;;5063701;28;20659;-77
2022/01/09 03:20:27;;;;;;;29.73;10.85;;;4.70;99.90;;;;;;5040973;28;20095;-77
2022/01/09 03:22:54;;;;;;;30.55;9.82;;;4.70;99.90;;;;;;5065356;28;20036;-77
2022/01/09 03:25:21;;;;;;;27.88;9.57;;;4.70;99.90;;;;;;5045458;28;20393;-77
2022/01/09 03:27:50;;;;;;;28.60;9.27;;;4.70;99.90;;;;;;5048314;28;20082;-77
2022/01/09 03:30:18;;;;;;;29.55;8.52;;;4.80;99.90;;;;;;5029765;28;20060;-77
2022/01/09 03:32:44;;;;;;;32.95;7.40;;;4.80;99.90;;;;;;5049240;28;20102;-77
2022/01/09 03:35:12;;;;;;;;;;;4.80;99.90;;;;;;5062247;28;20044;-77
2022/01/09 03:37:38;;;;;;;;;;;4.90;99.90;;;;;;5057810;28;19966;-77
2022/01/09 03:40:06;;;;;;;24.45;4.55;;;5.10;99.90;;;;;;5038894;28;19916;-77
2022/01/09 03:42:31;;;;;;;30.45;4.60;;;5.00;99.90;;;;;;5036803;28;20041;-77
2022/01/09 03:44:57;;;;;;;31.10;4.72;;;5.00;99.90;;;;;;5058604;28;20041;-77
2022/01/09 03:47:23;;;;;;;39.40;5.57;;;5.10;99.90;;;;;;5056163;28;20423;-77
2022/01/09 03:49:50;;;;;;;37.17;5.45;;;5.30;99.90;;;;;;5060631;28;20145;-77
2022/01/09 03:52:17;;;;;;;42.58;5.57;;;5.30;99.90;;;;;;5039585;28;20055;-77
2022/01/09 03:54:42;;;;;;;;;;;5.40;99.90;;;;;;5064957;28;20121;-77
2022/01/09 03:57:08;;;;;;;53.25;6.70;;;5.40;99.90;;;;;;5064629;28;19991;-77
2022/01/09 03:59:34;;;;;;;52.60;6.35;;;5.70;99.90;;;;;;5049441;28;20048;-77
2022/01/09 04:02:00;;;;;;;41.75;6.93;;;5.50;99.90;;;;;;5065422;28;20040;-77
2022/01/09 04:04:26;;;;;;;;;;;5.90;99.90;;;;;;5041949;28;20048;-77
2022/01/09 04:06:52;;;;;;;38.83;5.28;;;5.60;99.90;;;;;;5072346;28;19916;-77
2022/01/09 04:09:28;;;;;;;48.97;6.25;;;5.60;99.90;;;;;;5046219;28;20043;-77
2022/01/09 04:12:03;;;;;;;39.50;5.50;;;5.60;99.90;;;;;;5043721;28;20039;-77
2022/01/09 04:14:29;;;;;;;47.28;5.72;;;5.60;99.90;;;;;;5052435;28;20487;-77
2022/01/09 04:16:55;;;;;;;36.63;5.82;;;6.30;99.90;;;;;;5062647;28;20036;-77
2022/01/09 04:19:21;;;;;;;28.85;4.55;;;5.60;99.90;;;;;;5048100;28;20048;-77
2022/01/09 04:21:46;;;;;;;41.97;5.68;;;5.70;99.90;;;;;;5050665;28;20067;-77
2022/01/09 04:24:12;;;;;;;34.25;4.95;;;5.70;99.90;;;;;;5045791;28;20059;-77
2022/01/09 04:26:38;;;;;;;31.10;5.10;;;5.60;99.90;;;;;;5050964;28;20049;-77
2022/01/09 04:29:04;;;;;;;34.75;4.97;;;5.60;99.90;;;;;;5040389;28;20422;-77
2022/01/09 04:31:31;;;;;;;33.80;4.32;;;6.50;99.90;;;;;;5034153;28;20079;-77
2022/01/09 04:33:57;;;;;;;30.58;4.15;;;5.80;99.90;;;;;;5026731;28;20044;-75
2022/01/09 04:36:23;;;;;;;36.88;4.38;;;5.60;99.90;;;;;;5074400;28;20036;-76
2022/01/09 04:38:49;;;;;;;33.63;4.15;;;6.50;99.90;;;;;;5045753;28;20044;-76
2022/01/09 04:41:15;;;;;;;28.63;4.25;;;5.70;99.90;;;;;;5042891;28;20082;-75
2022/01/09 04:43:42;;;;;;;35.85;4.70;;;5.80;99.90;;;;;;5050452;28;20055;-76
2022/01/09 04:46:10;;;;;;;30.75;4.70;;;5.70;99.90;;;;;;5038150;28;20056;-76
2022/01/09 04:48:35;;;;;;;37.80;4.72;;;5.70;99.90;;;;;;5052715;28;20157;-76
2022/01/09 04:51:01;;;;;;;28.40;4.18;;;5.70;99.90;;;;;;5067023;28;20074;-76
2022/01/09 04:53:27;;;;;;;32.90;4.35;;;5.60;99.90;;;;;;5046808;28;20032;-76
2022/01/09 04:55:53;;;;;;;29.90;3.93;;;5.60;99.90;;;;;;5031677;28;20051;-76
2022/01/09 04:58:19;;;;;;;31.38;3.88;;;6.30;99.90;;;;;;5056569;28;20048;-76
2022/01/09 05:00:45;;;;;;;26.83;4.03;;;5.70;99.90;;;;;;5045083;28;20063;-76
2022/01/09 05:03:13;;;;;;;30.20;3.80;;;5.60;99.90;;;;;;5049699;28;20028;-76
2022/01/09 05:05:39;;;;;;;26.90;3.92;;;6.40;99.90;;;;;;5049417;28;20047;-76
2022/01/09 05:08:05;;;;;;;23.63;4.25;;;5.70;99.90;;;;;;5049002;28;20589;-77
2022/01/09 05:10:31;;;;;;;30.05;4.47;;;5.70;99.90;;;;;;5060452;28;20525;-77
2022/01/09 05:12:57;;;;;;;18.88;3.38;;;5.70;99.90;;;;;;5029733;28;20119;-77
2022/01/09 05:15:23;;;;;;;29.55;3.65;;;6.30;99.90;;;;;;5051829;28;20097;-77
2022/01/09 05:17:53;;;;;;;31.23;3.70;;;5.70;99.90;;;;;;5032156;28;20089;-77
2022/01/09 05:20:18;;;;;;;26.98;3.55;;;6.70;99.90;;;;;;5028553;28;20044;-77
2022/01/09 05:22:44;;;;;;;26.73;3.85;;;6.50;99.90;;;;;;5042448;28;20056;-77
2022/01/09 05:25:10;;;;;;;28.63;4.90;;;6.10;99.90;;;;;;5060624;28;20052;-77
2022/01/09 05:27:37;;;;;;;28.88;3.80;;;5.60;99.90;;;;;;5052327;28;20032;-77
2022/01/09 05:30:05;;;;;;;29.38;3.90;;;6.40;99.90;;;;;;5064142;28;20064;-77
2022/01/09 05:32:30;;;;;;;29.92;4.13;;;5.60;99.90;;;;;;5049373;28;20476;-76
2022/01/09 05:34:56;;;;;;;28.98;3.97;;;5.60;99.90;;;;;;5031033;28;20032;-76
2022/01/09 05:37:22;;;;;;;25.30;3.47;;;5.60;99.90;;;;;;5029763;28;20066;-77
2022/01/09 05:39:47;;;;;;;25.70;3.17;;;5.60;99.90;;;;;;5047842;28;20044;-77
2022/01/09 05:42:14;;;;;;;27.87;4.50;;;6.40;99.90;;;;;;5041779;28;20044;-77
2022/01/09 05:44:40;;;;;;;;;;;5.50;99.90;;;;;;5028542;28;20907;-77
2022/01/09 05:47:06;;;;;;;23.77;3.45;;;5.60;99.90;;;;;;5063554;28;20042;-77
2022/01/09 05:49:32;;;;;;;29.52;3.35;;;5.50;99.90;;;;;;5057960;28;20041;-77
2022/01/09 05:51:58;;;;;;;27.25;4.35;;;6.40;99.90;;;;;;5061257;28;20055;-77
2022/01/09 05:54:24;;;;;;;26.60;3.50;;;5.70;99.90;;;;;;5062509;28;20036;-77
2022/01/09 05:56:51;;;;;;;24.73;3.40;;;6.50;99.90;;;;;;5066352;28;20400;-77
2022/01/09 05:59:18;;;;;;;23.45;3.45;;;5.40;99.90;;;;;;5011246;28;20052;-77
2022/01/09 06:01:44;;;;;;;29.98;3.25;;;5.70;99.90;;;;;;5041462;28;20048;-76
2022/01/09 06:04:10;;;;;;;23.42;3.88;;;5.40;99.90;;;;;;5065681;28;20040;-77
2022/01/09 06:06:35;;;;;;;23.37;3.37;;;5.50;99.90;;;;;;5044557;28;20041;-76
2022/01/09 06:09:01;;;;;;;22.73;3.40;;;5.40;99.90;;;;;;5027725;28;20306;-77
2022/01/09 06:11:27;;;;;;;18.20;2.72;;;5.60;99.90;;;;;;5061443;28;20029;-77
2022/01/09 06:13:52;;;;;;;22.80;2.97;;;5.60;99.90;;;;;;5038981;28;20378;-77
2022/01/09 06:16:18;;;;;;;17.15;2.88;;;5.40;99.90;;;;;;5063363;28;20032;-77
2022/01/09 06:18:44;;;;;;;23.08;3.45;;;5.40;99.90;;;;;;5057891;28;20514;-77
2022/01/09 06:21:09;;;;;;;21.73;3.20;;;6.40;99.90;;;;;;5052732;28;20481;-77
2022/01/09 06:23:35;;;;;;;22.13;2.90;;;5.60;99.90;;;;;;5043186;28;20720;-77
2022/01/09 06:26:01;;;;;;;22.83;2.95;;;5.40;99.90;;;;;;5040003;28;20039;-77
2022/01/09 06:28:27;;;;;;;17.65;2.90;;;5.40;99.90;;;;;;5065970;28;20094;-77
2022/01/09 06:30:52;;;;;;;17.30;3.13;;;5.30;99.90;;;;;;5040906;28;20040;-77
2022/01/09 06:33:19;;;;;;;20.77;3.15;;;5.50;99.90;;;;;;5046836;28;20122;-77
2022/01/09 06:35:45;;;;;;;20.77;2.80;;;5.60;99.90;;;;;;5057146;28;20033;-77
2022/01/09 06:38:11;;;;;;;15.20;3.10;;;5.40;99.90;;;;;;5056012;28;20044;-77
2022/01/09 06:40:36;;;;;;;19.92;3.97;;;6.30;99.90;;;;;;5063372;28;20154;-76
2022/01/09 06:43:03;;;;;;;19.33;2.80;;;5.30;99.90;;;;;;5060153;28;20044;-77
2022/01/09 06:45:29;;;;;;;12.68;2.72;;;5.30;99.90;;;;;;5031469;28;20044;-77
2022/01/09 06:47:57;;;;;;;24.90;2.83;;;5.30;99.90;;;;;;5026936;28;20115;-77
2022/01/09 06:50:23;;;;;;;18.63;2.55;;;5.30;99.90;;;;;;5044241;28;20059;-77
2022/01/09 06:52:50;;;;;;;19.35;2.78;;;5.30;99.90;;;;;;5043806;28;20044;-77
2022/01/09 06:55:16;;;;;;;18.60;2.85;;;5.30;99.90;;;;;;5048179;28;20115;-77
2022/01/09 06:57:42;;;;;;;18.27;2.10;;;5.30;99.90;;;;;;5064268;28;20090;-77
2022/01/09 07:00:09;;;;;;;16.23;2.42;;;5.40;99.90;;;;;;5044242;28;20473;-77
2022/01/09 07:02:35;;;;;;;19.50;2.55;;;5.30;99.90;;;;;;5045542;28;20569;-77
2022/01/09 07:05:01;;;;;;;16.30;2.38;;;5.40;99.90;;;;;;5050736;28;20032;-77
2022/01/09 07:07:27;;;;;;;26.27;2.65;;;5.20;99.90;;;;;;5066691;28;20044;-77
2022/01/09 07:09:53;;;;;;;14.90;2.53;;;5.20;99.90;;;;;;5057352;28;20573;-77
2022/01/09 07:12:19;;;;;;;16.98;2.40;;;5.20;99.90;;;;;;5030370;28;20428;-77
2022/01/09 07:14:45;;;;;;;22.40;3.38;;;5.50;99.90;;;;;;5045886;28;20040;-77
2022/01/09 07:17:11;;;;;;;15.30;2.60;;;5.30;99.90;;;;;;5031710;28;20116;-77
2022/01/09 07:19:40;;;;;;;20.27;2.50;;;5.20;99.90;;;;;;5033768;28;20044;-77
2022/01/09 07:22:06;;;;;;;23.85;3.00;;;5.20;99.90;;;;;;5041017;28;20102;-77
2022/01/09 07:24:33;;;;;;;24.15;2.50;;;5.20;99.90;;;;;;5059303;28;20098;-77
2022/01/09 07:26:58;;;;;;;19.70;2.67;;;5.40;99.90;;;;;;5047685;28;20062;-77
2022/01/09 07:29:24;;;;;;;21.33;2.47;;;5.20;99.90;;;;;;5045246;28;20115;-77
2022/01/09 07:31:53;;;;;;;17.15;2.60;;;5.20;99.90;;;;;;5024298;28;20032;-77
2022/01/09 07:34:20;;;;;;;18.75;2.60;;;5.20;99.90;;;;;;5045473;28;20480;-77
2022/01/09 07:36:46;;;;;;;17.13;2.78;;;5.20;99.90;;;;;;5045060;28;20028;-76
2022/01/09 07:39:11;;;;;;;17.13;2.42;;;5.10;99.90;;;;;;5065767;28;20071;-76
2022/01/09 07:41:38;;;;;;;18.25;2.55;;;5.20;99.90;;;;;;5027823;28;20077;-76
2022/01/09 07:44:03;;;;;;;13.35;2.25;;;5.70;99.90;;;;;;5051448;28;20044;-76
2022/01/09 07:46:29;;;;;;;15.98;2.45;;;5.10;99.90;;;;;;5043878;28;20101;-76
2022/01/09 07:48:55;;;;;;;17.13;2.78;;;5.10;99.90;;;;;;5059269;28;20484;-76
2022/01/09 07:51:21;;;;;;;11.05;1.98;;;5.10;99.90;;;;;;5065993;28;20032;-76
2022/01/09 07:53:46;;;;;;;22.13;2.40;;;5.10;99.90;;;;;;5032227;28;20434;-76
2022/01/09 07:56:13;;;;;;;19.45;2.30;;;5.10;99.90;;;;;;5060901;28;20040;-76
2022/01/09 07:58:39;;;;;;;14.65;3.00;;;5.10;99.90;;;;;;5061309;28;20060;-76
2022/01/09 08:01:05;;;;;;;11.63;2.45;;;5.10;99.90;;;;;;5060774;28;20067;-76
2022/01/09 08:03:31;;;;;;;18.98;2.67;;;5.00;99.90;;;;;;5066723;28;20060;-76
2022/01/09 08:05:56;;;;;;;15.23;2.97;;;5.00;99.90;;;;;;5063164;28;20036;-76
2022/01/09 08:08:22;;;;;;;15.90;2.83;;;5.00;99.90;;;;;;5046390;28;20115;-76
2022/01/09 08:10:48;;;;;;;15.95;2.30;;;6.00;99.90;;;;;;5043407;28;20040;-76
2022/01/09 08:13:13;;;;;;;13.30;2.40;;;5.00;99.90;;;;;;5047802;28;20542;-76
2022/01/09 08:15:40;;;;;;;11.05;2.03;;;5.00;99.90;;;;;;5047512;28;20129;-76
2022/01/09 08:18:05;;;;;;;12.20;1.95;;;5.20;99.90;;;;;;5060632;28;20380;-76
2022/01/09 08:20:32;;;;;;;8.50;2.10;;;5.50;99.90;;;;;;5045962;28;20044;-76
2022/01/09 08:22:58;;;;;;;19.88;2.20;;;5.00;99.90;;;;;;5030966;28;20396;-76
2022/01/09 08:25:23;;;;;;;12.18;1.63;;;5.00;99.90;;;;;;5073239;28;20380;-76
2022/01/09 08:27:50;;;;;;;16.93;2.53;;;5.00;99.90;;;;;;5063283;28;20045;-76
2022/01/09 08:30:18;;;;;;;13.90;2.13;;;5.00;99.90;;;;;;5065454;28;20045;-76
2022/01/09 08:32:44;;;;;;;13.50;1.80;;;5.00;99.90;;;;;;5043336;28;20048;-76
2022/01/09 08:35:11;;;;;;;12.00;1.77;;;5.00;99.90;;;;;;5065277;28;20133;-76
2022/01/09 08:37:36;;;;;;;11.60;2.17;;;5.00;99.90;;;;;;5045017;28;20037;-76
2022/01/09 08:40:03;;;;;;;15.95;2.20;;;5.00;99.90;;;;;;5046244;28;20036;-75
2022/01/09 08:42:28;;;;;;;11.35;2.00;;;5.00;99.90;;;;;;5052691;28;20043;-75
2022/01/09 08:44:54;;;;;;;11.15;1.65;;;5.10;99.90;;;;;;5050887;28;20051;-74
2022/01/09 08:47:20;;;;;;;14.40;2.40;;;5.00;99.90;;;;;;5053489;28;20079;-76
2022/01/09 08:49:45;;;;;;;8.80;1.85;;;5.00;99.90;;;;;;5045634;28;20044;-76
2022/01/09 08:52:11;;;;;;;11.60;1.93;;;5.00;99.90;;;;;;5064637;28;20036;-75
2022/01/09 08:54:37;;;;;;;12.97;2.17;;;5.10;99.90;;;;;;5045843;28;20283;-76
2022/01/09 08:57:03;;;;;;;10.98;2.20;;;5.10;99.90;;;;;;5062280;28;20365;-76
2022/01/09 08:59:28;;;;;;;12.82;1.83;;;5.10;99.90;;;;;;5061825;28;20116;-76
2022/01/09 09:01:55;;;;;;;12.43;1.95;;;5.10;99.90;;;;;;5050446;28;20093;-75
2022/01/09 09:04:21;;;;;;;14.30;2.20;;;5.20;99.90;;;;;;5064235;28;20059;-76
2022/01/09 09:06:47;;;;;;;12.03;2.03;;;5.20;99.90;;;;;;5058899;28;20556;-76
2022/01/09 09:09:12;;;;;;;14.37;2.00;;;5.20;99.90;;;;;;5060577;28;20313;-76
2022/01/09 09:11:38;;;;;;;10.87;1.90;;;5.30;99.90;;;;;;5063724;28;20298;-76
2022/01/09 09:14:05;;;;;;;17.63;2.30;;;5.30;99.90;;;;;;5054996;28;20036;-75
2022/01/09 09:16:31;;;;;;;11.38;2.10;;;5.30;99.90;;;;;;5035376;28;20036;-75
2022/01/09 09:18:57;;;;;;;13.25;2.10;;;5.40;99.90;;;;;;5061746;28;20426;-75
2022/01/09 09:21:23;;;;;;;12.77;1.95;;;5.50;99.90;;;;;;5064428;28;20174;-75
2022/01/09 09:23:49;;;;;;;12.38;2.10;;;5.60;99.90;;;;;;5068389;28;20051;-75
2022/01/09 09:26:16;;;;;;;12.40;2.38;;;5.50;99.90;;;;;;5062011;28;20048;-75
2022/01/09 09:28:42;;;;;;;14.23;2.00;;;5.60;99.90;;;;;;5061372;28;20114;-75
2022/01/09 09:31:08;;;;;;;;;;;5.60;99.90;;;;;;5047792;28;20044;-76
2022/01/09 09:33:34;;;;;;;9.77;1.80;;;5.60;99.90;;;;;;5058701;28;19923;-76
2022/01/09 09:36:02;;;;;;;10.57;2.30;;;5.70;99.90;;;;;;5056423;28;20055;-77
2022/01/09 09:38:29;;;;;;;13.23;2.05;;;5.70;99.90;;;;;;5064668;28;20041;-77
2022/01/09 09:40:55;;;;;;;11.88;2.33;;;5.80;99.90;;;;;;5061802;28;20036;-77
2022/01/09 09:43:21;;;;;;;7.60;1.58;;;5.70;99.90;;;;;;5045089;28;20043;-78
2022/01/09 09:45:47;;;;;;;10.95;1.67;;;5.80;99.90;;;;;;5064519;28;20118;-77
2022/01/09 09:48:12;;;;;;;10.05;1.70;;;5.80;99.90;;;;;;5045877;28;20043;-77
2022/01/09 09:50:38;;;;;;;10.00;1.55;;;5.80;99.90;;;;;;5062554;28;20052;-77
2022/01/09 09:53:05;;;;;;;10.82;1.67;;;6.00;99.90;;;;;;5064948;28;20084;-77
2022/01/09 09:55:31;;;;;;;8.80;1.90;;;5.80;99.90;;;;;;5061215;28;20043;-77
2022/01/09 09:57:57;;;;;;;11.45;1.98;;;6.10;99.90;;;;;;5059035;28;20832;-77
2022/01/09 10:00:23;;;;;;;10.85;1.70;;;5.80;99.90;;;;;;5051563;28;20079;-78
2022/01/09 10:02:49;;;;;;;;;;;5.80;99.90;;;;;;5044144;28;20049;-77
2022/01/09 10:05:18;;;;;;;9.43;1.70;;;5.80;99.90;;;;;;5065262;28;21704;-76
2022/01/09 10:07:45;;;;;;;11.70;2.03;;;6.50;99.90;;;;;;5044671;28;20051;-77
2022/01/09 10:10:15;;;;;;;9.02;1.63;;;5.80;99.90;;;;;;5068573;28;20079;-77
2022/01/09 10:12:43;;;;;;;19.23;2.00;;;5.80;99.90;;;;;;5061679;28;20044;-77
2022/01/09 10:15:12;;;;;;;10.10;2.08;;;5.80;99.90;;;;;;5047202;28;20036;-76
2022/01/09 10:17:46;;;;;;;14.05;1.70;;;5.90;99.90;;;;;;5062540;28;20384;-77
2022/01/09 10:20:18;;;;;;;10.02;1.60;;;6.20;99.90;;;;;;5045817;28;20044;-79
2022/01/09 10:22:49;;;;;;;8.38;1.60;;;6.20;99.90;;;;;;5066157;28;20058;-78
2022/01/09 10:25:30;;;;;;;9.65;1.60;;;6.20;99.90;;;;;;5069159;28;20109;-76
2022/01/09 10:28:03;;;;;;;8.68;1.77;;;6.20;99.90;;;;;;5059578;28;20051;-77
2022/01/09 10:30:39;;;;;;;10.02;1.67;;;6.40;99.90;;;;;;5058497;28;20078;-78
2022/01/09 10:33:12;;;;;;;8.20;1.40;;;6.40;99.90;;;;;;5040171;28;20481;-78
2022/01/09 10:35:39;;;;;;;8.13;2.00;;;6.60;99.90;;;;;;5058057;28;20047;-76
2022/01/09 10:38:19;;;;;;;9.05;1.85;;;6.70;99.90;;;;;;5058738;28;20052;-78
2022/01/09 10:40:49;;;;;;;9.60;1.75;;;6.90;99.90;;;;;;5061991;28;20079;-77
2022/01/09 10:43:46;;;;;;;9.10;1.85;;;7.00;99.90;;;;;;5054652;28;20048;-77
2022/01/09 10:46:12;;;;;;;10.95;1.85;;;7.20;99.90;;;;;;5040307;28;20040;-76
2022/01/09 10:48:40;;;;;;;8.03;1.67;;;7.20;99.90;;;;;;5044853;28;20036;-76
2022/01/09 10:51:09;;;;;;;11.95;1.60;;;7.20;99.90;;;;;;5064426;28;20137;-76
2022/01/09 10:53:42;;;;;;;8.13;1.98;;;7.30;99.90;;;;;;5064514;28;20051;-76
2022/01/09 10:56:20;;;;;;;11.65;1.55;;;7.40;99.90;;;;;;5028632;28;20067;-76
2022/01/09 10:58:47;;;;;;;10.07;1.50;;;7.90;99.90;;;;;;5051101;28;20056;-76
2022/01/09 11:01:17;;;;;;;9.30;1.55;;;7.20;99.90;;;;;;5058389;28;20045;-76
2022/01/09 11:03:50;;;;;;;9.65;2.13;;;7.20;99.90;;;;;;5036757;28;20378;-77
2022/01/09 11:06:16;;;;;;;10.30;1.75;;;7.10;99.90;;;;;;5052657;28;20476;-78
2022/01/09 11:08:43;;;;;;;9.27;1.98;;;7.00;99.90;;;;;;5057321;28;20389;-77
2022/01/09 11:11:16;;;;;;;;;;;7.00;99.90;;;;;;5016318;28;20049;-78
2022/01/09 11:13:44;;;;;;;7.70;1.63;;;6.80;99.90;;;;;;5057333;28;19924;-76
2022/01/09 11:18:58;;;;;;;7.30;1.50;;;6.70;99.90;;;;;;5064425;28;20504;-77
2022/01/09 11:21:24;;;;;;;7.18;1.40;;;6.60;99.90;;;;;;5056598;28;20106;-76
2022/01/09 11:24:22;;;;;;;13.95;2.03;;;6.50;99.90;;;;;;5021216;28;20045;-76
2022/01/09 11:27:08;;;;;;;8.98;1.58;;;6.70;99.90;;;;;;5018338;28;20424;-77
2022/01/09 11:29:44;;;;;;;9.48;1.55;;;6.50;99.90;;;;;;5041967;28;20049;-77
2022/01/09 11:32:31;;;;;;;8.73;1.58;;;6.60;99.90;;;;;;5046117;28;20036;-77
2022/01/09 11:35:03;;;;;;;7.53;1.50;;;6.60;99.90;;;;;;5046048;28;20051;-76
2022/01/09 11:38:10;;;;;;;10.52;1.83;;;6.60;99.90;;;;;;5057063;28;20047;-78
2022/01/09 11:40:38;;;;;;;10.40;1.77;;;6.90;99.90;;;;;;4968462;28;20045;-78
2022/01/09 11:43:08;;;;;;;12.45;1.85;;;7.10;99.90;;;;;;5028392;28;20055;-77
2022/01/09 11:45:57;;;;;;;14.95;2.17;;;7.30;99.90;;;;;;5052496;28;20076;-77
2022/01/09 11:48:52;;;;;;;14.60;2.05;;;7.80;99.90;;;;;;5057930;28;20043;-77
2022/01/09 11:51:25;;;;;;;7.85;1.50;;;8.40;99.90;;;;;;5057901;28;20086;-78
2022/01/09 11:54:02;;;;;;;11.32;1.90;;;8.60;99.90;;;;;;5061967;28;20037;-78
2022/01/09 11:56:51;;;;;;;11.75;2.00;;;8.80;99.90;;;;;;5066494;28;20044;-77
2022/01/09 11:59:24;;;;;;;11.10;2.13;;;8.90;99.90;;;;;;5061016;28;20382;-78
2022/01/09 12:01:53;;;;;;;13.65;2.03;;;9.00;99.90;;;;;;5045363;28;20129;-79
2022/01/09 12:04:34;;;;;;;8.60;1.85;;;9.00;99.90;;;;;;5064497;28;20193;-77
2022/01/09 12:07:42;;;;;;;9.93;2.17;;;9.00;99.90;;;;;;5064132;28;20036;-76
2022/01/09 12:10:27;;;;;;;9.85;1.73;;;8.60;99.90;;;;;;5039106;28;20040;-76
2022/01/09 12:12:53;;;;;;;10.07;1.48;;;8.70;99.90;;;;;;5059162;28;20061;-76
2022/01/09 12:15:40;;;;;;;14.07;2.28;;;8.80;99.90;;;;;;5029783;28;20064;-76
2022/01/09 12:18:26;;;;;;;16.67;1.87;;;8.50;99.90;;;;;;5060650;28;20516;-76
2022/01/09 12:20:52;;;;;;;10.38;1.60;;;8.40;99.90;;;;;;5061140;28;20064;-76
2022/01/09 12:23:22;;;;;;;13.18;2.08;;;8.40;99.90;;;;;;5064659;28;20090;-76
2022/01/09 12:25:51;;;;;;;14.40;1.92;;;8.40;99.90;;;;;;5044836;28;20033;-76
2022/01/09 12:28:18;;;;;;;8.80;1.50;;;8.40;99.90;;;;;;5043151;28;20037;-76
2022/01/09 12:30:48;;;;;;;10.38;1.60;;;8.40;99.90;;;;;;5044393;28;20040;-76
2022/01/09 12:33:27;;;;;;;11.25;1.60;;;8.60;99.90;;;;;;5059674;28;20064;-77
2022/01/09 12:36:05;;;;;;;12.00;2.05;;;9.20;99.90;;;;;;5058882;28;20036;-77
2022/01/09 12:38:45;;;;;;;9.52;1.50;;;9.40;99.90;;;;;;5058070;28;20040;-77
2022/01/09 12:41:16;;;;;;;14.10;2.10;;;9.40;99.90;;;;;;5062053;28;20029;-77
2022/01/09 12:43:43;;;;;;;7.97;1.60;;;9.50;99.90;;;;;;5059220;28;20439;-77
2022/01/09 12:46:11;;;;;;;;;;;9.50;99.90;;;;;;5062361;28;20512;-77
2022/01/09 12:48:37;;;;;;;6.63;1.50;;;9.70;99.90;;;;;;5063092;28;20288;-77
2022/01/09 12:51:14;;;;;;;11.57;1.67;;;9.50;99.90;;;;;;5062297;28;20094;-77
2022/01/09 12:53:41;;;;;;;;;;;9.40;99.90;;;;;;5057689;28;20064;-77